LEZLLFKJ

Guest
Details From LEZL - Sevilla
To LFKJ - Napoleon Bonaparte
Flight Number -
Tags decoded
Created
Modified
Stats Distance 753 nm / 1,395 km
Max Altitude 0 ft / 0 m
Waypoints 11
Social Downloads 1
Likes 0
Share VATSIM

Download

Looking for another format? Having issues loading an existing format? Contact us
Advertisement - Login to hide

Notes

Requested: LEZL BUDIT UM445 LASPO UM871 EDULI UM603 MHN UN851 NEGAT LFKJ Unmatched points: UM445 UM871 UM603

Route

LEZL BUDIT LASPO EDULI MHN UN851 NEGAT LFKJ

ID Type Via Altitude Latitude Longitude Leg Dist Tot Dist Heading (true) Name
O LEZL APT - 0 ft / 0 m 37.41794˚ -5.89309˚ - 0 nm - Sevilla
BUDIT FIX - 0 ft / 0 m 37.97250˚ -2.50444˚ 164 nm 164 nm 77° / 79° -
LASPO FIX - 0 ft / 0 m 39.28250˚ -0.54444˚ 121 nm 285 nm 49° / 50° -
EDULI FIX - 0 ft / 0 m 39.40611˚ 2.41750˚ 137 nm 423 nm 86° / 88° -
MHN VOR - 0 ft / 0 m 39.86351˚ 4.21719˚ 87 nm 510 nm 71° / 72° MENORCA VOR-DME
ISTER FIX UN851 (AWY-HI) 0 ft / 0 m 40.06462˚ 4.66666˚ 23 nm 534 nm 60° / 60° -
LUNOR FIX UN851 (AWY-HI) 0 ft / 0 m 40.38500˚ 5.39667˚ 38 nm 573 nm 60° / 60° -
LUTTA FIX UN851 (AWY-HI) 0 ft / 0 m 40.85500˚ 6.49667˚ 57 nm 630 nm 60° / 61° -
SOVAG FIX UN851 (AWY-HI) 0 ft / 0 m 41.14694˚ 7.20667˚ 36 nm 667 nm 61° / 62° -
NEGAT FIX UN851 (AWY-HI) 0 ft / 0 m 41.41167˚ 7.86278˚ 33 nm 701 nm 62° / 62° -
O LFKJ APT - 0 ft / 0 m 41.92289˚ 8.79959˚ 52 nm 753 nm 54° / 54° Napoleon Bonaparte

Altitude Profile

Advertisement - Login to hide

Weather


0- 5 10 15 20 25 30 35+ Temperature / ° C

Clouds and Precipitation
Forecast for 2017-12-11 12:00 UTC. Updated 12 minutes ago

Ground ~20,000 ft ~40,000 ft Winds

LEZL

Details ICAO LEZL (SVQ)
Name Sevilla
Region Spain
Timezone Europe/Madrid (UTC+1.0)
Stats Elevation 111 ft / 34 m (AMSL)
Location 37.417939° -5.893093°
Runways 1
Magnetic Variation 1.298° W

METAR

LEZL 110930Z 22010KT 9999 FEW030 11/09 Q1004 NOSIG

Decode

TAF

TAF AMD LEZL 110926Z 1109/1209 26008KT 9999 SCT020 TX17/1115Z TN04/1206Z= TAF AMD LFRH 110902Z 1109/1206 33015G25KT 9999 SCT015 BKN020 OVC035 TEMPO 1109/1117 33020G30KT RA OVC012TCU BECMG 1117/1119 33010KT CAVOK PROB30 TEMPO 1203/1206 3000 BR

Decode

Departure Runways

ID Width Length Bearing (true) Bearing (mag) Surface Threshold Offset Overrun Length
09 148 ft / 45 m 11,008 ft / 3,355 m 89.75° 91.05° Asphalt 0 ft / 0 m 0 ft / 0 m
27 148 ft / 45 m 11,008 ft / 3,355 m 269.77° 271.07° Asphalt 0 ft / 0 m 0 ft / 0 m

LFKJ

Details ICAO LFKJ (AJA)
Name Napoleon Bonaparte
Region France
Timezone Europe/Paris (UTC+1.0)
Stats Elevation 18 ft / 5 m (AMSL)
Location 41.922886° 8.799587°
Runways 2
Magnetic Variation 2.328° E

METAR

LFKJ 110930Z 18018G29KT 9999 FEW021 BKN033 17/11 Q1001 NOSIG

Decode

TAF

TAF LFKJ 110800Z 1109/1209 18018G30KT 9999 FEW020 BKN025 PROB30 TEMPO 1109/1123 4000 RA BECMG 1123/1202 05006KT

Decode

Destination Runways

ID Width Length Bearing (true) Bearing (mag) Surface Threshold Offset Overrun Length
02 180 ft / 55 m 7,899 ft / 2,408 m 24.94° 22.61° Asphalt 0 ft / 0 m 164 ft / 50 m
10 98 ft / 30 m 3,447 ft / 1,051 m 94.35° 92.02° Concrete 0 ft / 0 m 164 ft / 50 m
20 180 ft / 55 m 7,899 ft / 2,408 m 204.95° 202.62° Asphalt 745 ft / 227 m 230 ft / 70 m
28 98 ft / 30 m 3,447 ft / 1,051 m 274.36° 272.03° Concrete 213 ft / 65 m 0 ft / 0 m

Approach Navaids

Runway Type Ident Frequency Range Bearing (true) Bearing (mag) Slope Elevation
02 Localiser AC 110.30 MHz 27 nm / 50 km 24.92° 22.59° - 18 ft / 5 m (AMSL)
02 Glidescope AC 110.30 MHz 27 nm / 50 km 24.92° 22.59° 3.00° 18 ft / 5 m (AMSL)
02 DME AC 110.30 MHz 27 nm / 50 km - - - 18 ft / 5 m (AMSL)